Time;durP1;ratioP1;P1;durP2;ratioP2;P2;SDS_P1;SDS_P2;PMS_P1;PMS_P2;Temp;Humidity;BMP_temperature;BMP_pressure;BME280_temperature;BME280_humidity;BME280_pressure;Samples;Min_cycle;Max_cycle;Signal;HPM_P1;HPM_P2
2023/07/05 00:00:59;;;;;;;;;;;15.70;99.90;;;;;;5078443;28;20044;-60
2023/07/05 00:03:24;;;;;;;14.40;7.65;;;15.70;99.90;;;;;;5079829;28;19927;-60
2023/07/05 00:05:50;;;;;;;13.82;7.80;;;15.60;99.90;;;;;;5082937;28;20052;-57
2023/07/05 00:08:16;;;;;;;;;;;15.50;99.90;;;;;;5080247;28;20036;-60
2023/07/05 00:10:41;;;;;;;16.00;7.80;;;15.50;99.90;;;;;;5090807;28;20463;-62
2023/07/05 00:13:07;;;;;;;16.77;8.65;;;15.50;99.90;;;;;;5081734;28;20035;-60
2023/07/05 00:15:33;;;;;;;15.88;8.10;;;15.50;99.90;;;;;;5077473;28;20514;-60
2023/07/05 00:17:59;;;;;;;;;;;15.60;99.90;;;;;;5072070;28;20032;-60
2023/07/05 00:20:25;;;;;;;17.02;7.72;;;15.60;99.90;;;;;;5076077;28;19926;-61
2023/07/05 00:22:51;;;;;;;;;;;15.70;99.90;;;;;;5066378;28;20041;-60
2023/07/05 00:25:17;;;;;;;13.65;7.43;;;15.60;99.90;;;;;;5077786;28;20379;-58
2023/07/05 00:27:42;;;;;;;16.27;7.78;;;15.70;99.90;;;;;;5064734;28;20043;-60
2023/07/05 00:30:08;;;;;;;;;;;15.70;99.90;;;;;;5072598;28;20039;-59
2023/07/05 00:32:34;;;;;;;17.98;8.20;;;15.70;99.90;;;;;;5063845;28;19919;-60
2023/07/05 00:34:59;;;;;;;13.80;8.07;;;15.70;99.90;;;;;;5068189;28;20119;-61
2023/07/05 00:37:25;;;;;;;;;;;15.80;99.90;;;;;;5065020;28;20060;-61
2023/07/05 00:39:50;;;;;;;15.60;8.48;;;15.70;99.90;;;;;;5068043;28;20023;-58
2023/07/05 00:42:16;;;;;;;;;;;15.80;99.90;;;;;;5065508;28;20040;-57
2023/07/05 00:44:58;;;;;;;12.75;7.65;;;15.80;99.90;;;;;;5071458;28;20379;-58
2023/07/05 00:47:27;;;;;;;13.10;7.50;;;15.80;99.90;;;;;;5056433;28;20102;-59
2023/07/05 00:50:00;;;;;;;16.50;7.70;;;15.90;99.90;;;;;;5068486;28;20593;-62
2023/07/05 00:52:26;;;;;;;12.00;6.40;;;15.90;99.90;;;;;;5058319;28;20036;-60
2023/07/05 00:54:53;;;;;;;;;;;15.90;99.90;;;;;;5067866;28;20454;-62
2023/07/05 00:57:28;;;;;;;15.45;6.30;;;16.00;99.90;;;;;;5063528;28;19924;-59
2023/07/05 01:00:08;;;;;;;14.93;5.30;;;16.00;99.90;;;;;;5071197;28;20055;-59
2023/07/05 01:02:39;;;;;;;10.52;5.40;;;16.00;99.90;;;;;;5064261;28;20120;-59
2023/07/05 01:05:05;;;;;;;12.00;5.93;;;15.90;99.90;;;;;;5062847;28;20048;-59
2023/07/05 01:07:31;;;;;;;10.63;6.03;;;15.90;99.90;;;;;;5064204;28;20642;-61
2023/07/05 01:09:57;;;;;;;;;;;15.80;99.90;;;;;;5066050;28;20044;-60
2023/07/05 01:12:45;;;;;;;8.38;4.88;;;15.80;99.90;;;;;;5063936;28;19973;-60
2023/07/05 01:15:15;;;;;;;11.27;5.65;;;15.70;99.90;;;;;;5070812;28;20074;-58
2023/07/05 01:18:08;;;;;;;13.98;5.45;;;15.60;99.90;;;;;;5065152;28;20037;-60
2023/07/05 01:21:08;;;;;;;9.68;4.80;;;15.70;99.90;;;;;;5071134;28;20044;-56
2023/07/05 01:23:59;;;;;;;7.93;4.55;;;15.60;99.90;;;;;;5061551;28;20087;-58
2023/07/05 01:26:39;;;;;;;9.50;4.68;;;15.60;99.90;;;;;;5067728;28;20607;-61
2023/07/05 01:29:14;;;;;;;12.05;5.30;;;15.70;99.90;;;;;;5065993;28;20462;-59
2023/07/05 01:31:46;;;;;;;9.43;4.47;;;15.60;99.90;;;;;;5053296;28;20032;-62
2023/07/05 01:34:29;;;;;;;7.45;3.83;;;15.60;99.90;;;;;;5065823;28;20431;-57
2023/07/05 01:36:56;;;;;;;9.77;4.18;;;15.60;99.90;;;;;;5058975;28;20044;-60
2023/07/05 01:39:21;;;;;;;6.75;4.03;;;15.60;99.90;;;;;;5067213;28;20469;-56
2023/07/05 01:41:47;;;;;;;;;;;15.60;99.90;;;;;;5063050;28;20495;-61
2023/07/05 01:44:14;;;;;;;11.77;3.33;;;15.60;99.90;;;;;;5064833;28;19916;-60
2023/07/05 01:46:53;;;;;;;6.10;3.70;;;15.60;99.90;;;;;;5061646;28;20078;-60
2023/07/05 01:49:39;;;;;;;7.00;3.80;;;15.60;99.90;;;;;;5064129;28;20094;-58
2023/07/05 01:52:14;;;;;;;6.40;3.30;;;15.60;99.90;;;;;;5065278;28;20041;-59
2023/07/05 01:54:58;;;;;;;6.25;2.90;;;15.50;99.90;;;;;;5067465;28;20040;-60
2023/07/05 01:57:28;;;;;;;5.82;2.70;;;15.60;99.90;;;;;;5057217;28;20041;-60
2023/07/05 01:59:59;;;;;;;5.82;2.67;;;15.60;99.90;;;;;;5062109;28;20043;-58
2023/07/05 02:02:31;;;;;;;7.50;2.83;;;15.60;99.90;;;;;;5056623;28;20052;-59
2023/07/05 02:04:58;;;;;;;6.07;3.00;;;15.60;99.90;;;;;;5068471;28;20075;-59
2023/07/05 02:07:29;;;;;;;4.80;3.20;;;15.60;99.90;;;;;;5062631;28;20048;-58
2023/07/05 02:09:55;;;;;;;4.90;3.05;;;15.60;99.90;;;;;;5071136;28;20119;-56
2023/07/05 02:12:22;;;;;;;5.70;2.83;;;15.60;99.90;;;;;;5056818;28;20048;-61
2023/07/05 02:14:48;;;;;;;5.38;3.00;;;15.60;99.90;;;;;;5062563;28;20386;-60
2023/07/05 02:17:14;;;;;;;;;;;15.60;99.90;;;;;;5062817;28;20484;-58
2023/07/05 02:19:39;;;;;;;6.60;3.45;;;15.60;99.90;;;;;;5066846;28;19916;-62
2023/07/05 02:22:05;;;;;;;;;;;15.60;99.90;;;;;;5064390;28;20047;-62
2023/07/05 02:24:31;;;;;;;4.57;2.60;;;15.60;99.90;;;;;;5066772;28;19916;-59
2023/07/05 02:26:57;;;;;;;3.90;2.58;;;15.60;99.90;;;;;;5064646;28;20121;-61
2023/07/05 02:29:23;;;;;;;5.75;2.75;;;15.60;99.90;;;;;;5060423;28;20408;-61
2023/07/05 02:31:49;;;;;;;;;;;15.60;99.90;;;;;;5060436;28;20033;-59
2023/07/05 02:34:14;;;;;;;5.47;2.33;;;15.70;99.90;;;;;;5070261;28;19924;-56
2023/07/05 02:36:40;;;;;;;;;;;15.70;99.90;;;;;;5067439;28;20036;-61
2023/07/05 02:39:06;;;;;;;5.55;2.50;;;15.70;99.90;;;;;;5065068;28;19920;-58
2023/07/05 02:41:31;;;;;;;;;;;15.70;99.90;;;;;;5067976;28;20037;-60
2023/07/05 02:43:57;;;;;;;6.43;2.20;;;15.70;99.90;;;;;;5066157;28;20049;-60
2023/07/05 02:46:25;;;;;;;;;;;15.70;99.90;;;;;;5063351;28;20116;-60
2023/07/05 02:48:52;;;;;;;2.90;2.10;;;15.70;99.90;;;;;;5063248;28;20384;-62
2023/07/05 02:51:18;;;;;;;3.17;1.92;;;15.70;99.90;;;;;;5066886;28;20072;-58
2023/07/05 02:53:43;;;;;;;;;;;15.70;99.90;;;;;;5065787;28;20954;-61
2023/07/05 02:56:09;;;;;;;4.75;2.53;;;15.70;99.90;;;;;;5067557;28;20397;-61
2023/07/05 02:58:35;;;;;;;3.40;2.00;;;15.70;99.90;;;;;;5066022;28;20036;-58
2023/07/05 03:01:00;;;;;;;;;;;15.60;99.90;;;;;;5063618;28;20055;-58
2023/07/05 03:03:26;;;;;;;3.08;2.13;;;15.60;99.90;;;;;;5062195;28;19947;-59
2023/07/05 03:05:55;;;;;;;;;;;15.60;99.90;;;;;;5062008;28;20051;-57
2023/07/05 03:08:21;;;;;;;8.43;2.70;;;15.50;99.90;;;;;;5057896;28;19916;-60
2023/07/05 03:10:46;;;;;;;;;;;15.50;99.90;;;;;;5069086;28;20106;-61
2023/07/05 03:13:12;;;;;;;3.75;1.88;;;15.50;99.90;;;;;;5066390;28;20624;-54
2023/07/05 03:15:37;;;;;;;;;;;15.40;99.90;;;;;;5068343;28;20051;-60
2023/07/05 03:18:04;;;;;;;2.90;2.10;;;15.40;99.90;;;;;;5063272;28;19927;-60
2023/07/05 03:20:32;;;;;;;4.95;2.88;;;15.40;99.90;;;;;;5064818;28;20135;-61
2023/07/05 03:22:58;;;;;;;5.00;2.35;;;15.40;99.90;;;;;;5044695;28;21074;-61
2023/07/05 03:25:24;;;;;;;;;;;15.40;99.90;;;;;;5041747;28;20044;-63
2023/07/05 03:27:50;;;;;;;5.15;2.03;;;15.40;99.90;;;;;;5047218;28;19920;-61
2023/07/05 03:30:18;;;;;;;;;;;15.40;99.90;;;;;;5050266;28;20055;-56
2023/07/05 03:32:43;;;;;;;4.47;2.60;;;15.40;99.90;;;;;;5048835;28;19921;-57
2023/07/05 03:35:09;;;;;;;;;;;15.40;99.90;;;;;;5065820;28;20461;-56
2023/07/05 03:37:35;;;;;;;7.15;3.50;;;15.40;99.90;;;;;;5046559;28;19919;-61
2023/07/05 03:40:00;;;;;;;;;;;15.30;99.90;;;;;;5058666;28;20047;-60
2023/07/05 03:42:26;;;;;;;8.63;4.22;;;15.30;99.90;;;;;;5054597;28;20648;-61
2023/07/05 03:44:52;;;;;;;;;;;15.30;99.90;;;;;;5057398;28;20085;-63
2023/07/05 03:47:18;;;;;;;9.00;5.00;;;15.20;99.90;;;;;;5050905;28;19924;-59
2023/07/05 03:49:43;;;;;;;;;;;15.20;99.90;;;;;;5057601;28;20042;-58
2023/07/05 03:52:09;;;;;;;5.88;4.43;;;15.20;99.90;;;;;;5056557;28;19971;-60
2023/07/05 03:54:35;;;;;;;11.77;4.50;;;15.10;99.90;;;;;;5060353;28;20488;-60
2023/07/05 03:57:00;;;;;;;;;;;15.10;99.90;;;;;;5059792;28;20124;-62
2023/07/05 03:59:26;;;;;;;9.50;3.88;;;15.10;99.90;;;;;;5060796;28;20637;-61
2023/07/05 04:01:51;;;;;;;;;;;15.00;99.90;;;;;;5057373;28;20498;-56
2023/07/05 04:04:17;;;;;;;4.57;2.78;;;15.00;99.90;;;;;;5062566;28;19920;-59
2023/07/05 04:06:42;;;;;;;;;;;15.00;99.90;;;;;;5062831;28;20106;-62
2023/07/05 04:09:08;;;;;;;5.55;2.85;;;15.00;99.90;;;;;;5061743;28;20288;-59
2023/07/05 04:11:33;;;;;;;;;;;15.00;99.90;;;;;;5062747;28;20028;-65
2023/07/05 04:13:59;;;;;;;8.43;2.83;;;15.00;99.90;;;;;;5063026;28;20601;-61
2023/07/05 04:16:25;;;;;;;;;;;15.00;99.90;;;;;;5060639;28;20052;-61
2023/07/05 04:18:53;;;;;;;5.97;2.60;;;15.00;99.90;;;;;;5062143;28;20514;-61
2023/07/05 04:21:19;;;;;;;6.75;2.88;;;14.90;99.90;;;;;;5067165;28;20105;-56
2023/07/05 04:23:45;;;;;;;4.72;2.55;;;14.90;99.90;;;;;;5062254;28;20098;-55
2023/07/05 04:26:12;;;;;;;;;;;14.90;99.90;;;;;;5066135;28;20048;-57
2023/07/05 04:28:39;;;;;;;3.58;1.65;;;14.90;99.90;;;;;;5064041;28;19920;-61
2023/07/05 04:31:09;;;;;;;4.82;1.00;;;14.90;99.90;;;;;;5059780;28;20052;-56
2023/07/05 04:33:34;;;;;;;6.88;1.05;;;14.80;99.90;;;;;;5069675;28;20039;-62
2023/07/05 04:36:00;;;;;;;;;;;14.60;99.90;;;;;;5069362;28;20063;-61
2023/07/05 04:38:26;;;;;;;1.65;0.60;;;14.50;99.90;;;;;;5054084;28;20766;-59
2023/07/05 04:40:52;;;;;;;;;;;14.40;99.90;;;;;;5066190;28;20044;-61
2023/07/05 04:43:18;;;;;;;3.90;0.93;;;14.20;99.90;;;;;;5065192;28;19920;-59
2023/07/05 04:45:50;;;;;;;;;;;13.90;99.90;;;;;;5062937;28;20420;-61
2023/07/05 04:48:16;;;;;;;3.55;1.00;;;13.60;99.90;;;;;;5064855;28;19921;-59
2023/07/05 04:50:43;;;;;;;2.75;0.70;;;13.40;99.90;;;;;;5069851;28;20119;-60
2023/07/05 04:53:08;;;;;;;1.88;1.15;;;13.40;99.90;;;;;;5061987;28;21001;-57
2023/07/05 04:55:33;;;;;;;;;;;13.40;99.90;;;;;;5069802;28;20802;-60
2023/07/05 04:57:59;;;;;;;4.97;0.82;;;13.40;99.90;;;;;;5059034;28;19920;-59
2023/07/05 05:00:25;;;;;;;;;;;13.50;99.90;;;;;;5067765;28;20048;-59
2023/07/05 05:02:51;;;;;;;1.42;0.80;;;13.50;99.90;;;;;;5062763;28;19920;-61
2023/07/05 05:05:16;;;;;;;2.92;1.08;;;13.60;99.90;;;;;;5061631;28;20181;-60
2023/07/05 05:07:42;;;;;;;;;;;13.60;99.90;;;;;;5062085;28;20044;-60
2023/07/05 05:10:07;;;;;;;2.78;0.88;;;13.60;99.90;;;;;;5070618;28;19916;-59
2023/07/05 05:12:33;;;;;;;;;;;13.60;99.90;;;;;;5062064;28;20551;-61
2023/07/05 05:14:59;;;;;;;3.45;1.08;;;13.60;99.90;;;;;;5064747;28;19917;-61
2023/07/05 05:17:25;;;;;;;3.80;1.25;;;13.60;99.90;;;;;;5057318;28;20167;-60
2023/07/05 05:19:51;;;;;;;1.80;1.00;;;13.60;99.90;;;;;;5061970;28;20442;-60
2023/07/05 05:22:16;;;;;;;;;;;13.60;99.90;;;;;;5053824;28;20036;-61
2023/07/05 05:24:43;;;;;;;2.20;1.23;;;13.60;99.90;;;;;;5072891;28;19923;-62
2023/07/05 05:27:08;;;;;;;1.98;1.27;;;13.60;99.90;;;;;;5051504;28;20160;-62
2023/07/05 05:29:34;;;;;;;;;;;13.60;99.90;;;;;;5073325;28;20134;-57
2023/07/05 05:32:00;;;;;;;2.55;1.67;;;13.70;99.90;;;;;;5052192;28;20989;-59
2023/07/05 05:34:26;;;;;;;;;;;13.70;99.90;;;;;;5066625;28;20049;-60
2023/07/05 05:36:52;;;;;;;2.22;1.30;;;13.70;99.90;;;;;;5060150;28;19971;-59
2023/07/05 05:39:23;;;;;;;3.47;1.92;;;13.70;99.90;;;;;;5062069;28;20071;-59
2023/07/05 05:41:50;;;;;;;2.85;1.55;;;13.70;99.90;;;;;;5056918;28;20048;-61
2023/07/05 05:44:15;;;;;;;2.97;1.48;;;13.70;99.90;;;;;;5066420;28;20068;-59
2023/07/05 05:46:41;;;;;;;;;;;13.70;99.90;;;;;;5058263;28;20087;-60
2023/07/05 05:49:06;;;;;;;5.85;2.15;;;13.70;99.90;;;;;;5065658;28;19989;-57
2023/07/05 05:51:32;;;;;;;;;;;13.80;99.90;;;;;;5066387;28;20583;-61
2023/07/05 05:53:57;;;;;;;4.70;2.35;;;13.80;99.90;;;;;;5063617;28;19963;-58
2023/07/05 05:56:23;;;;;;;;;;;13.80;99.90;;;;;;5057043;28;20101;-59
2023/07/05 05:58:48;;;;;;;7.35;2.35;;;13.80;99.90;;;;;;5063691;28;20017;-56
2023/07/05 06:01:14;;;;;;;5.80;2.88;;;13.90;99.90;;;;;;5060023;28;20047;-60
2023/07/05 06:03:40;;;;;;;4.22;2.30;;;14.20;99.90;;;;;;5060817;28;20036;-58
2023/07/05 06:06:05;;;;;;;;;;;14.10;99.90;;;;;;5055535;28;20048;-61
2023/07/05 06:08:32;;;;;;;3.83;2.10;;;14.10;99.90;;;;;;5066958;28;20138;-54
2023/07/05 06:11:00;;;;;;;5.63;3.17;;;14.00;99.90;;;;;;5062580;28;20444;-62
2023/07/05 06:13:27;;;;;;;5.88;2.50;;;13.90;99.90;;;;;;5059436;28;20061;-61
2023/07/05 06:15:57;;;;;;;4.65;2.67;;;14.00;99.90;;;;;;5057011;28;20052;-60
2023/07/05 06:18:25;;;;;;;3.65;2.28;;;14.20;99.90;;;;;;5057782;28;20785;-58
2023/07/05 06:20:50;;;;;;;3.53;2.40;;;14.50;99.90;;;;;;5060349;28;20106;-63
2023/07/05 06:23:16;;;;;;;;;;;14.60;99.90;;;;;;5061735;28;20539;-60
2023/07/05 06:25:48;;;;;;;5.03;2.00;;;14.80;99.90;;;;;;5062317;28;20078;-57
2023/07/05 06:28:15;;;;;;;4.97;2.40;;;14.90;99.90;;;;;;5059787;28;20492;-58
2023/07/05 06:30:41;;;;;;;4.38;2.42;;;14.80;99.90;;;;;;5065414;28;20044;-61
2023/07/05 06:33:06;;;;;;;;;;;14.60;99.90;;;;;;5062544;28;20036;-60
2023/07/05 06:35:33;;;;;;;5.13;2.63;;;14.50;99.90;;;;;;5065265;28;19923;-57
2023/07/05 06:37:58;;;;;;;4.35;2.40;;;14.40;99.90;;;;;;5061343;28;20101;-58
2023/07/05 06:40:24;;;;;;;;;;;14.60;99.90;;;;;;5065301;28;20045;-58
2023/07/05 06:42:50;;;;;;;6.30;3.30;;;14.60;99.90;;;;;;5062153;28;20395;-56
2023/07/05 06:45:16;;;;;;;4.63;2.75;;;14.60;99.90;;;;;;5055201;28;20044;-56
2023/07/05 06:47:42;;;;;;;;;;;14.70;99.90;;;;;;5057156;28;20037;-56
2023/07/05 06:50:09;;;;;;;4.40;2.70;;;14.50;99.90;;;;;;5066861;28;19939;-59
2023/07/05 06:52:34;;;;;;;4.25;2.67;;;14.40;99.90;;;;;;5058030;28;20046;-59
2023/07/05 06:55:00;;;;;;;;;;;14.20;99.90;;;;;;5057918;28;20472;-59
2023/07/05 06:57:26;;;;;;;7.90;3.28;;;14.10;99.90;;;;;;5056383;28;20385;-62
2023/07/05 06:59:51;;;;;;;;;;;14.00;99.90;;;;;;5067838;28;20279;-55
2023/07/05 07:02:17;;;;;;;3.80;2.13;;;14.20;99.90;;;;;;5058253;28;20564;-57
2023/07/05 07:04:42;;;;;;;6.38;2.95;;;14.20;99.90;;;;;;5060821;28;20048;-56
2023/07/05 07:07:08;;;;;;;;;;;14.00;99.90;;;;;;5054606;28;20147;-56
2023/07/05 07:09:34;;;;;;;5.60;2.67;;;13.90;99.90;;;;;;5070186;28;20680;-57
2023/07/05 07:12:00;;;;;;;5.72;2.85;;;13.70;99.90;;;;;;5060796;28;20492;-58
2023/07/05 07:14:25;;;;;;;;;;;13.60;99.90;;;;;;5068768;28;20040;-57
2023/07/05 07:16:51;;;;;;;4.40;2.38;;;13.60;99.90;;;;;;5058312;28;19927;-58
2023/07/05 07:19:17;;;;;;;;;;;13.60;99.90;;;;;;5063558;28;20156;-58
2023/07/05 07:21:44;;;;;;;5.03;2.80;;;13.50;99.90;;;;;;5065623;28;20376;-52
2023/07/05 07:24:09;;;;;;;4.63;2.70;;;13.50;99.90;;;;;;5063912;28;20039;-59
2023/07/05 07:26:36;;;;;;;;;;;14.40;99.90;;;;;;5061395;28;20041;-58
2023/07/05 07:29:03;;;;;;;3.75;2.38;;;15.70;99.90;;;;;;5071532;28;19919;-58
2023/07/05 07:31:32;;;;;;;6.13;2.60;;;16.80;99.90;;;;;;5068683;28;20048;-53
2023/07/05 07:34:00;;;;;;;6.45;2.30;;;17.00;99.90;;;;;;5064198;28;20089;-60
2023/07/05 07:36:28;;;;;;;6.68;2.63;;;17.20;99.60;;;;;;5058228;28;20055;-52
2023/07/05 07:38:54;;;;;;;5.05;2.78;;;16.90;99.00;;;;;;5073355;28;20039;-60
2023/07/05 07:41:22;;;;;;;3.70;2.38;;;17.00;99.20;;;;;;5067053;28;20039;-60
2023/07/05 07:43:53;;;;;;;4.68;2.70;;;17.10;98.70;;;;;;5066507;28;20079;-59
2023/07/05 07:46:21;;;;;;;4.80;2.40;;;17.70;97.80;;;;;;5067040;28;20131;-60
2023/07/05 07:48:49;;;;;;;3.92;2.08;;;17.90;97.00;;;;;;5066538;28;20049;-60
2023/07/05 07:51:16;;;;;;;3.80;1.92;;;18.60;95.30;;;;;;5072365;28;20040;-57
2023/07/05 07:53:42;;;;;;;7.15;2.08;;;19.00;93.80;;;;;;5070427;28;20861;-58
2023/07/05 07:56:14;;;;;;;4.25;2.17;;;19.00;92.70;;;;;;5067339;28;20044;-61
2023/07/05 07:58:41;;;;;;;3.65;2.05;;;19.50;92.50;;;;;;5065031;28;20036;-59
2023/07/05 08:01:16;;;;;;;3.10;1.95;;;20.50;90.40;;;;;;5070209;28;20036;-60
2023/07/05 08:03:42;;;;;;;4.32;1.73;;;19.30;90.80;;;;;;5061596;28;20040;-59
2023/07/05 08:06:08;;;;;;;5.78;1.80;;;18.10;93.20;;;;;;5068714;28;20074;-54
2023/07/05 08:08:35;;;;;;;5.97;1.85;;;17.10;94.30;;;;;;5062446;28;20044;-59
2023/07/05 08:11:02;;;;;;;5.13;2.10;;;16.50;96.40;;;;;;5067793;28;20079;-64
2023/07/05 08:13:29;;;;;;;4.05;2.20;;;16.60;97.00;;;;;;5069046;28;20044;-60
2023/07/05 08:15:54;;;;;;;3.47;1.80;;;16.70;95.20;;;;;;5068614;28;20040;-59
2023/07/05 08:18:20;;;;;;;2.70;1.65;;;16.90;95.20;;;;;;5053146;28;20043;-57
2023/07/05 08:20:45;;;;;;;3.63;1.70;;;16.90;95.70;;;;;;5074113;28;20078;-60
2023/07/05 08:23:11;;;;;;;3.85;1.95;;;16.50;96.70;;;;;;5066631;28;20059;-62
2023/07/05 08:25:39;;;;;;;5.13;1.73;;;16.10;96.50;;;;;;5071693;28;20047;-56
2023/07/05 08:28:06;;;;;;;3.90;1.80;;;15.80;97.50;;;;;;5066948;28;20058;-58
2023/07/05 08:30:34;;;;;;;6.03;2.22;;;15.40;98.10;;;;;;5069542;28;20102;-62
2023/07/05 08:33:02;;;;;;;3.45;1.67;;;15.00;99.10;;;;;;5063111;28;20040;-58
2023/07/05 08:35:28;;;;;;;3.97;1.50;;;14.80;99.50;;;;;;5069287;28;20068;-61
2023/07/05 08:37:53;;;;;;;;;;;14.90;99.60;;;;;;5066358;28;20074;-59
2023/07/05 08:40:19;;;;;;;3.70;1.83;;;15.30;99.30;;;;;;5063652;28;19985;-56
2023/07/05 08:42:59;;;;;;;2.88;1.63;;;16.00;98.00;;;;;;5059490;28;20079;-61
2023/07/05 08:45:35;;;;;;;3.67;1.50;;;17.00;96.60;;;;;;5073876;28;20055;-59
2023/07/05 08:48:03;;;;;;;4.75;1.30;;;17.50;95.50;;;;;;5068153;28;20075;-60
2023/07/05 08:50:36;;;;;;;6.93;1.52;;;17.10;94.90;;;;;;5070438;28;20047;-58
2023/07/05 08:53:05;;;;;;;6.60;2.22;;;16.50;96.80;;;;;;5059674;28;20036;-59
2023/07/05 08:55:46;;;;;;;2.60;1.50;;;15.90;97.40;;;;;;5066650;28;20757;-61
2023/07/05 08:58:19;;;;;;;3.80;1.48;;;15.60;99.20;;;;;;5066425;28;20058;-59
2023/07/05 09:00:58;;;;;;;6.50;1.80;;;15.30;98.90;;;;;;5069618;28;20412;-58
2023/07/05 09:03:28;;;;;;;6.63;1.40;;;15.00;99.90;;;;;;5060126;28;20072;-59
2023/07/05 09:06:09;;;;;;;3.22;1.42;;;14.90;99.90;;;;;;5059626;28;20083;-55
2023/07/05 09:08:37;;;;;;;4.00;1.85;;;14.70;99.90;;;;;;5061581;28;20099;-59
2023/07/05 09:11:15;;;;;;;3.72;1.60;;;14.50;99.90;;;;;;5058619;28;20489;-56
2023/07/05 09:13:42;;;;;;;3.63;1.60;;;14.40;99.90;;;;;;5062749;28;20047;-57
2023/07/05 09:16:26;;;;;;;3.05;1.63;;;14.20;99.90;;;;;;5061343;28;20089;-60
2023/07/05 09:18:56;;;;;;;5.47;1.73;;;14.20;99.90;;;;;;5062549;28;20468;-56
2023/07/05 09:21:34;;;;;;;2.58;1.45;;;14.20;99.90;;;;;;5067658;28;20045;-60
2023/07/05 09:24:21;;;;;;;2.92;1.63;;;14.30;99.90;;;;;;5064901;28;20611;-60
2023/07/05 09:26:55;;;;;;;2.97;1.45;;;14.20;99.90;;;;;;5058812;28;20416;-58
2023/07/05 09:29:27;;;;;;;1.98;1.13;;;14.10;99.90;;;;;;5065849;28;20579;-61
2023/07/05 09:31:54;;;;;;;3.03;1.20;;;14.10;99.90;;;;;;5059817;28;20406;-61
2023/07/05 09:34:32;;;;;;;3.13;1.10;;;14.00;99.90;;;;;;5064933;28;20048;-56
2023/07/05 09:37:00;;;;;;;4.50;1.10;;;13.90;99.90;;;;;;5063466;28;20041;-60
2023/07/05 09:39:46;;;;;;;8.63;1.60;;;14.00;99.90;;;;;;5069045;28;20144;-61
2023/07/05 09:42:19;;;;;;;4.50;1.35;;;13.90;99.90;;;;;;5056656;28;20075;-58
2023/07/05 09:44:45;;;;;;;3.58;1.15;;;13.80;99.90;;;;;;5072853;28;20108;-61
2023/07/05 09:47:11;;;;;;;;;;;13.70;99.90;;;;;;5064963;28;20743;-60
2023/07/05 09:49:37;;;;;;;1.77;0.93;;;13.70;99.90;;;;;;5068912;28;19920;-58
2023/07/05 09:52:04;;;;;;;;;;;13.80;99.90;;;;;;5065631;28;20118;-55
2023/07/05 09:54:31;;;;;;;2.30;1.25;;;14.00;99.90;;;;;;5067405;28;20001;-61
2023/07/05 09:57:01;;;;;;;2.97;1.27;;;14.20;99.90;;;;;;5052737;28;20051;-59
2023/07/05 09:59:27;;;;;;;2.97;1.20;;;14.40;99.90;;;;;;5061608;28;20064;-60
2023/07/05 10:01:54;;;;;;;;;;;14.50;99.90;;;;;;5060432;28;20061;-60
2023/07/05 10:04:29;;;;;;;2.17;1.00;;;14.50;99.90;;;;;;5062425;28;19954;-58
2023/07/05 10:06:56;;;;;;;2.83;1.45;;;14.90;99.90;;;;;;5055397;28;20110;-60
2023/07/05 10:09:24;;;;;;;3.15;1.42;;;14.80;99.90;;;;;;5056153;28;20045;-59
2023/07/05 10:11:57;;;;;;;2.78;1.23;;;14.70;99.90;;;;;;5053910;28;20492;-60
2023/07/05 10:14:33;;;;;;;2.72;1.30;;;14.70;99.90;;;;;;5056871;28;20048;-61
2023/07/05 10:17:11;;;;;;;2.95;1.45;;;14.50;99.90;;;;;;5055879;28;20036;-55
2023/07/05 10:19:42;;;;;;;7.38;1.50;;;14.40;99.90;;;;;;5067555;28;20124;-57
2023/07/05 10:22:13;;;;;;;1.95;1.27;;;14.30;99.90;;;;;;5056389;28;20068;-58
2023/07/05 10:24:48;;;;;;;6.40;1.40;;;14.20;99.90;;;;;;5073311;28;20050;-59
2023/07/05 10:27:40;;;;;;;2.97;1.20;;;14.30;99.90;;;;;;5062933;28;20052;-59
2023/07/05 10:30:13;;;;;;;3.00;1.10;;;14.60;99.90;;;;;;5073355;28;20074;-56
2023/07/05 10:32:39;;;;;;;2.45;1.30;;;14.90;99.90;;;;;;5058977;28;20044;-60
2023/07/05 10:35:33;;;;;;;8.80;1.40;;;15.00;99.90;;;;;;5055864;28;20484;-55
2023/07/05 10:37:59;;;;;;;3.97;1.25;;;15.00;99.90;;;;;;5062245;28;20138;-54
2023/07/05 10:40:24;;;;;;;;;;;15.20;99.90;;;;;;5064056;28;20105;-60
2023/07/05 10:42:54;;;;;;;;;;;15.10;99.40;;;;;;5066422;28;19948;-59
2023/07/05 10:45:21;;;;;;;;;;;14.90;99.90;;;;;;5066505;28;20399;-60
2023/07/05 10:47:51;;;;;;;;;;;14.80;99.90;;;;;;5060682;28;20015;-60
2023/07/05 10:50:20;;;;;;;;;;;14.70;99.90;;;;;;5067948;28;20249;-56
2023/07/05 10:52:53;;;;;;;;;;;14.60;99.90;;;;;;5060150;28;19931;-61
2023/07/05 10:55:21;;;;;;;;;;;14.60;99.90;;;;;;5065583;28;19924;-62
2023/07/05 10:57:53;;;;;;;;;;;14.60;99.90;;;;;;5065403;28;19916;-55
2023/07/05 11:00:21;;;;;;;;;;;14.60;99.90;;;;;;5055777;28;20447;-60
2023/07/05 11:02:46;;;;;;;;;;;14.60;99.90;;;;;;5059595;28;19927;-49
2023/07/05 11:05:20;;;;;;;;;;;15.00;99.90;;;;;;5066372;28;19917;-58
2023/07/05 11:07:48;;;;;;;;;;;15.30;99.90;;;;;;5064928;28;19924;-60
2023/07/05 11:10:14;;;;;;;;;;;15.30;99.90;;;;;;5058163;28;20407;-56
2023/07/05 11:12:41;;;;;;;;;;;15.40;99.00;;;;;;5053819;28;19921;-61
2023/07/05 11:15:11;;;;;;;;;;;15.20;99.40;;;;;;5050494;28;19920;-58
2023/07/05 11:17:37;;;;;;;;;;;15.10;99.60;;;;;;5053543;28;19927;-59
2023/07/05 11:20:23;;;;;;;;;;;15.20;99.90;;;;;;5058008;28;19920;-59
2023/07/05 11:22:48;;;;;;;;;;;15.20;99.80;;;;;;5061431;28;19916;-57
2023/07/05 11:25:17;;;;;;;;;;;15.50;99.60;;;;;;5055683;28;19939;-58
2023/07/05 11:27:48;;;;;;;;;;;15.80;98.80;;;;;;5051343;28;19924;-58
2023/07/05 11:30:34;;;;;;;;;;;16.00;98.00;;;;;;5048047;28;19928;-58
2023/07/05 11:33:03;;;;;;;;;;;16.20;98.60;;;;;;5042559;28;20494;-54
2023/07/05 11:35:41;;;;;;;;;;;16.30;96.30;;;;;;5057330;28;19920;-58
2023/07/05 11:38:06;;;;;;;;;;;16.20;96.90;;;;;;5064450;28;20006;-56
2023/07/05 11:40:51;;;;;;;;;;;16.10;96.90;;;;;;5063197;28;20081;-57
2023/07/05 11:43:22;;;;;;;;;;;15.90;97.00;;;;;;5057160;28;20000;-55
2023/07/05 11:45:47;;;;;;;;;;;15.90;97.60;;;;;;5051720;28;19924;-57
2023/07/05 11:48:34;;;;;;;;;;;15.90;97.80;;;;;;5055170;28;19927;-58
2023/07/05 11:50:59;;;;;;;;;;;16.00;97.00;;;;;;5043552;28;19916;-58
2023/07/05 11:53:27;;;;;;;;;;;15.90;96.50;;;;;;5062034;28;20388;-58
2023/07/05 11:55:53;;;;;;;;;;;15.90;96.70;;;;;;5060765;28;19947;-58
2023/07/05 11:58:22;;;;;;;;;;;15.80;95.60;;;;;;5049665;28;19920;-55
2023/07/05 12:00:49;;;;;;;;;;;16.00;96.40;;;;;;5055099;28;19920;-58
2023/07/05 12:03:22;;;;;;;;;;;16.00;96.10;;;;;;5066446;28;19927;-59
2023/07/05 12:05:54;;;;;;;;;;;16.10;96.10;;;;;;5065954;28;19920;-59
2023/07/05 12:08:24;;;;;;;;;;;16.10;96.50;;;;;;5065707;28;19922;-58
2023/07/05 12:10:55;;;;;;;;;;;16.10;96.40;;;;;;5061871;28;19917;-52
2023/07/05 12:13:25;;;;;;;;;;;16.20;95.70;;;;;;5057933;28;19920;-54
2023/07/05 12:15:50;;;;;;;;;;;16.30;95.90;;;;;;5067073;28;19973;-60
2023/07/05 12:18:16;;;;;;;;;;;16.40;95.80;;;;;;5068650;28;20419;-60
2023/07/05 12:20:47;;;;;;;;;;;16.30;95.90;;;;;;5071496;28;19920;-59
2023/07/05 12:23:13;;;;;;;;;;;16.40;94.90;;;;;;5069589;28;20163;-60
2023/07/05 12:25:40;;;;;;;;;;;16.50;95.00;;;;;;5070926;28;19937;-57
2023/07/05 12:28:15;;;;;;;;;;;16.50;94.20;;;;;;5060957;28;19985;-59
2023/07/05 12:30:41;;;;;;;;;;;16.40;94.00;;;;;;5064302;28;19925;-57
2023/07/05 12:33:27;;;;;;;;;;;16.30;94.60;;;;;;5069361;28;19949;-60
2023/07/05 12:36:09;;;;;;;;;;;16.40;94.60;;;;;;5066543;28;19916;-59
2023/07/05 12:38:35;;;;;;;;;;;16.50;94.40;;;;;;5063665;28;19920;-56
2023/07/05 12:41:01;;;;;;;;;;;16.60;95.00;;;;;;5071188;28;19920;-56
2023/07/05 12:43:32;;;;;;;;;;;16.70;93.70;;;;;;5063326;28;19927;-56
2023/07/05 12:46:07;;;;;;;;;;;16.50;93.90;;;;;;5062296;28;20027;-61
2023/07/05 12:48:32;;;;;;;;;;;16.40;94.50;;;;;;5067833;28;19920;-52
2023/07/05 12:51:01;;;;;;;;;;;16.40;94.50;;;;;;5070109;28;20661;-54
2023/07/05 12:53:26;;;;;;;;;;;16.50;94.30;;;;;;5067184;28;19920;-58
2023/07/05 12:56:12;;;;;;;;;;;16.70;93.40;;;;;;5070487;28;19967;-57
2023/07/05 12:58:41;;;;;;;;;;;16.80;93.50;;;;;;5058757;28;19927;-58
2023/07/05 13:01:11;;;;;;;;;;;16.80;94.10;;;;;;5063054;28;20473;-58
2023/07/05 13:03:42;;;;;;;;;;;16.90;93.40;;;;;;5073008;28;19916;-59
2023/07/05 13:06:08;;;;;;;;;;;17.10;92.70;;;;;;5071157;28;19930;-61
2023/07/05 13:08:33;;;;;;;;;;;17.00;92.80;;;;;;5065183;28;20333;-60
2023/07/05 13:10:59;;;;;;;;;;;17.20;91.90;;;;;;5064696;28;19927;-60
2023/07/05 13:13:25;;;;;;;;;;;17.00;91.10;;;;;;5065041;28;19924;-60
2023/07/05 13:15:51;;;;;;;;;;;16.90;91.70;;;;;;5072645;28;19921;-60
2023/07/05 13:18:31;;;;;;;;;;;16.90;92.40;;;;;;5069133;28;19916;-60
2023/07/05 13:21:15;;;;;;;;;;;17.10;91.80;;;;;;5060676;28;19921;-59
2023/07/05 13:23:48;;;;;;;;;;;17.30;90.50;;;;;;5067908;28;19974;-57
2023/07/05 13:26:24;;;;;;;;;;;17.60;90.20;;;;;;5069280;28;19931;-57
2023/07/05 13:28:49;;;;;;;;;;;17.60;88.90;;;;;;5062254;28;20844;-55